createdAt,value
2019-02-10T00:02:47.721Z,9.10
2019-02-10T00:05:54.591Z,9.10
2019-02-10T00:08:50.499Z,9.10
2019-02-10T00:11:53.240Z,9.10
2019-02-10T00:15:16.592Z,9.10
2019-02-10T00:17:58.892Z,9.20
2019-02-10T00:20:49.382Z,9.20
2019-02-10T00:23:38.557Z,9.20
2019-02-10T00:33:40.023Z,9.30
2019-02-10T00:36:42.500Z,9.30
2019-02-10T00:43:49.868Z,9.20
2019-02-10T01:01:32.358Z,9.20
2019-02-10T01:05:26.059Z,9.20
2019-02-10T01:13:24.488Z,9.10
2019-02-10T01:16:27.665Z,9.20
2019-02-10T01:19:52.311Z,9.20
2019-02-10T01:26:53.763Z,9.20
2019-02-10T01:30:31.037Z,9.20
2019-02-10T01:37:41.347Z,9.10
2019-02-10T01:44:48.472Z,9.10
2019-02-10T01:48:12.218Z,9.10
2019-02-10T01:51:21.114Z,9.00
2019-02-10T01:54:53.271Z,8.90
2019-02-10T01:58:02.059Z,8.90
2019-02-10T02:01:15.915Z,8.90
2019-02-10T02:04:26.230Z,8.80
2019-02-10T02:11:51.228Z,8.70
2019-02-10T02:14:50.961Z,8.70
2019-02-10T02:18:02.658Z,8.70
2019-02-10T02:25:20.589Z,8.60
2019-02-10T02:28:44.947Z,8.50
2019-02-10T02:32:16.468Z,8.50
2019-02-10T02:44:42.678Z,8.20
2019-02-10T02:47:50.832Z,8.20
2019-02-10T02:50:27.806Z,8.20
2019-02-10T02:53:27.512Z,8.20
2019-02-10T02:56:28.685Z,8.20
2019-02-10T02:59:06.730Z,8.20
2019-02-10T03:01:38.421Z,8.10
2019-02-10T03:04:16.061Z,8.20
2019-02-10T03:06:55.832Z,8.10
2019-02-10T03:09:51.465Z,8.10
2019-02-10T03:12:51.760Z,8.10
2019-02-10T03:15:30.937Z,7.50
2019-02-10T03:18:52.983Z,7.50
2019-02-10T03:21:19.760Z,7.90
2019-02-10T03:23:57.025Z,7.90
2019-02-10T03:26:42.030Z,7.90
2019-02-10T03:29:18.625Z,7.80
2019-02-10T03:31:58.118Z,7.80
2019-02-10T03:34:31.963Z,7.80
2019-02-10T03:37:05.172Z,7.70
2019-02-10T03:39:47.736Z,7.70
2019-02-10T03:42:39.077Z,7.70
2019-02-10T03:45:17.238Z,7.60
2019-02-10T03:47:57.450Z,7.60
2019-02-10T03:50:29.572Z,7.50
2019-02-10T03:53:20.741Z,7.50
2019-02-10T03:55:54.893Z,7.50
2019-02-10T03:58:32.527Z,7.40
2019-02-10T04:01:17.163Z,7.40
2019-02-10T04:04:04.999Z,7.40
2019-02-10T04:06:44.609Z,7.40
2019-02-10T04:09:16.024Z,7.40
2019-02-10T04:12:04.157Z,7.40
2019-02-10T04:14:37.779Z,7.40
2019-02-10T04:17:13.097Z,7.30
2019-02-10T04:19:50.595Z,7.40
2019-02-10T04:22:23.838Z,7.30
2019-02-10T04:25:04.692Z,7.40
2019-02-10T04:27:41.828Z,7.40
2019-02-10T04:30:43.783Z,7.40
2019-02-10T04:33:47.125Z,7.30
2019-02-10T04:43:02.404Z,7.30
2019-02-10T04:45:39.648Z,7.20
2019-02-10T04:48:12.912Z,7.30
2019-02-10T04:50:45.827Z,7.30
2019-02-10T04:53:32.417Z,7.70
2019-02-10T04:56:28.101Z,7.20
2019-02-10T04:59:09.906Z,7.20
2019-02-10T05:01:46.548Z,7.20
2019-02-10T05:04:18.913Z,7.20
2019-02-10T05:06:51.513Z,7.20
2019-02-10T05:09:34.507Z,7.20
2019-02-10T05:12:38.450Z,7.20
2019-02-10T05:15:15.932Z,7.20
2019-02-10T05:17:50.828Z,7.20
2019-02-10T05:20:33.328Z,7.20
2019-02-10T05:23:07.272Z,7.20
2019-02-10T05:25:48.004Z,7.20
2019-02-10T05:28:41.492Z,7.20
2019-02-10T05:31:19.883Z,7.20
2019-02-10T05:33:51.392Z,7.20
2019-02-10T05:36:24.081Z,7.20
2019-02-10T05:38:59.009Z,7.30
2019-02-10T05:41:38.196Z,7.30
2019-02-10T05:44:32.134Z,7.30
2019-02-10T05:47:19.371Z,7.30
2019-02-10T05:50:02.769Z,7.30
2019-02-10T05:52:45.758Z,7.30
2019-02-10T05:55:17.428Z,7.40
2019-02-10T05:58:01.083Z,7.40
2019-02-10T06:00:35.476Z,7.40
2019-02-10T06:06:44.369Z,7.40
2019-02-10T06:09:17.978Z,7.40
2019-02-10T06:11:58.148Z,7.50
2019-02-10T06:14:32.149Z,7.50
2019-02-10T06:21:09.197Z,7.50
2019-02-10T06:30:41.470Z,7.60
2019-02-10T06:33:19.238Z,7.60
2019-02-10T06:35:56.176Z,7.60
2019-02-10T06:38:32.521Z,7.70
2019-02-10T06:41:30.365Z,7.70
2019-02-10T06:44:48.768Z,7.70
2019-02-10T06:47:34.395Z,7.70
2019-02-10T06:50:45.496Z,7.70
2019-02-10T06:56:49.369Z,7.80
2019-02-10T07:00:03.198Z,7.80
2019-02-10T07:03:02.065Z,7.80
2019-02-10T07:06:07.534Z,7.80
2019-02-10T07:08:54.126Z,7.90
2019-02-10T07:23:04.007Z,8.10
2019-02-10T07:38:05.887Z,8.20
2019-02-10T07:41:34.525Z,8.20
2019-02-10T07:49:38.310Z,8.40
2019-02-10T07:56:10.360Z,8.40
2019-02-10T07:59:53.721Z,8.50
2019-02-10T08:03:05.824Z,8.50
2019-02-10T08:06:11.252Z,8.60
2019-02-10T08:09:41.391Z,8.60
2019-02-10T08:25:17.684Z,8.90
2019-02-10T08:29:19.760Z,9.10
2019-02-10T08:32:36.550Z,9.20
2019-02-10T09:07:06.255Z,10.00
2019-02-10T09:30:12.097Z,10.40
2019-02-10T10:06:04.737Z,10.00
2019-02-10T10:09:38.395Z,10.00
2019-02-10T11:09:00.546Z,9.90
2019-02-10T12:05:13.555Z,9.90
2019-02-10T12:39:06.694Z,9.50
2019-02-10T12:46:28.936Z,9.30
2019-02-10T13:39:40.400Z,9.60
2019-02-10T13:53:43.794Z,9.30
2019-02-10T13:59:50.983Z,9.50
2019-02-10T14:02:03.288Z,9.50
2019-02-10T14:07:09.903Z,9.20
2019-02-10T14:14:16.229Z,9.10
2019-02-10T14:17:52.176Z,9.20
2019-02-10T14:20:43.727Z,9.20
2019-02-10T14:35:20.042Z,9.20
2019-02-10T14:42:58.394Z,9.30
2019-02-10T15:06:05.043Z,8.90
2019-02-10T15:26:51.608Z,9.00
2019-02-10T15:29:21.063Z,8.90
2019-02-10T16:03:39.759Z,8.60
2019-02-10T18:19:51.233Z,6.50
2019-02-10T18:50:52.332Z,6.40
2019-02-10T19:02:51.441Z,5.90
2019-02-10T19:27:33.705Z,5.60
2019-02-10T19:30:51.817Z,5.50
2019-02-10T19:46:19.106Z,5.50
2019-02-10T19:53:25.176Z,5.40
2019-02-10T19:57:20.108Z,5.50
2019-02-10T20:04:51.255Z,5.40
2019-02-10T20:11:40.172Z,5.20
2019-02-10T20:19:50.321Z,5.30
2019-02-10T20:31:24.764Z,4.70
2019-02-10T20:34:45.500Z,5.20
2019-02-10T20:38:23.914Z,5.20
2019-02-10T20:46:13.806Z,5.10
2019-02-10T20:57:29.689Z,5.00
2019-02-10T21:04:13.328Z,4.90
2019-02-10T21:08:55.756Z,4.90
2019-02-10T21:11:42.805Z,4.90
2019-02-10T21:22:29.520Z,4.60
2019-02-10T21:25:53.608Z,4.50
2019-02-10T21:34:21.633Z,4.60
2019-02-10T21:47:06.575Z,3.90
2019-02-10T21:50:04.371Z,3.60
2019-02-10T21:53:54.753Z,3.40
2019-02-10T22:04:41.185Z,3.60
2019-02-10T22:16:50.584Z,3.90
2019-02-10T22:20:35.372Z,3.80
2019-02-10T22:24:05.583Z,3.80
2019-02-10T22:27:51.184Z,3.90
2019-02-10T22:30:33.026Z,3.90
2019-02-10T22:33:53.374Z,3.80
2019-02-10T22:37:35.292Z,3.80
2019-02-10T22:44:22.302Z,3.90
2019-02-10T22:47:38.206Z,3.90
2019-02-10T22:50:47.185Z,3.90
2019-02-10T22:54:12.453Z,4.00
2019-02-10T22:57:31.150Z,4.10
2019-02-10T23:04:32.452Z,4.20
2019-02-10T23:10:19.969Z,4.20
2019-02-10T23:11:33.581Z,4.30
2019-02-10T23:22:30.695Z,4.40
2019-02-10T23:25:33.615Z,4.40
2019-02-10T23:31:36.554Z,4.50
2019-02-10T23:37:57.685Z,4.50
2019-02-10T23:40:53.274Z,4.50
2019-02-10T23:43:44.523Z,4.60
2019-02-10T23:46:34.097Z,4.60
2019-02-10T23:49:16.505Z,4.60
2019-02-10T23:52:03.264Z,4.70
2019-02-10T23:54:45.323Z,4.70
2019-02-10T23:58:02.028Z,4.70
